Fairfax, Minnesota
Current Conditions -  °F | °C
As of 10:53 PM on Tuesday 21 Oct 2014 (Local Time) from KRWF Reporting Station
Clear Clear  
Wind Chill: 52°   Ceiling: Unl
Heat Index: 52°   Visibility: 10mi
Dew Point: 40°   Wind: 16mph
Humidity: 63%   Direction: 150°SSE
Pressure: 30.08"   Gusts: NA
Location:  44.53°N, 94.72°W
Report Text: KRWF 220353Z AUTO 15014KT 10SM CLR 11/04 A3008 RMK AO2 SLP190 T01110044
Loading
Personal Weather Stations






























Interactive Weather Map
Tropical Storm Tracking
New forecast layout! Learn more

10-Day Weather Forecast

Advertisements
Track Severe Weather on mobile